CYGH

Fort Good Hope Airport

Fort Good Hope, Northwest Territories, Canada
METAR CYGH 202300Z 25008KT 15SM -RA OVC061 16/12 A2998 RMK SC8 16.9/10.6/TR/0 LAST OB/NXT 211300Z VIA CYWG SLP156 DENSITY ALT 500FT
Observed Flight Rules
Aug-20 @ 23:00 UTC (an hour ago) Visual Flight Rules
Wind Visibility Clouds Conditions
250° at 8 knots 15 miles
  • Overcast at 6,100' AGL
  • Light Rain
Temperatures Readings
Current 16°C / 61°F
Dewpoint 12°C / 54°F
Humidity 77%
Altimeter 29.98" Hg
Pressure 1015.6 hPa
Elevation 66
METAR CYGH 202300Z 25008KT 15SM -RA OVC061 16/12 A2998 RMK SC8 16.9/10.6/TR/0 LAST OB/NXT 211300Z VIA CYWG SLP156 DENSITY ALT 500FT
Observed Flight Rules
Aug-20 @ 23:00 UTC
(an hour ago)
VFR
Wind Visibility
250° at 8 knots 15 miles
Clouds
  • Overcast at 6,100' AGL
Conditions
  • Light Rain
Temperature Dewpoint
16°C / 61°F 12°C / 54°F
Humidity Altimeter Pressure
77% 29.98" Hg 1015.6 hPa